sensor_id;sensor_type;location;lat;lon;timestamp;P1;durP1;ratioP1;P2;durP2;ratioP2
23565;SDS011;22140;48.988;8.544;2023-06-26T00:03:22;11.48;;;5.10;;
23565;SDS011;22140;48.988;8.544;2023-06-26T00:08:24;12.43;;;6.10;;
23565;SDS011;22140;48.988;8.544;2023-06-26T00:13:25;11.55;;;5.85;;
23565;SDS011;22140;48.988;8.544;2023-06-26T00:18:27;12.38;;;6.05;;
23565;SDS011;22140;48.988;8.544;2023-06-26T00:23:28;13.43;;;5.50;;
23565;SDS011;22140;48.988;8.544;2023-06-26T00:28:31;11.45;;;5.55;;
23565;SDS011;22140;48.988;8.544;2023-06-26T00:33:33;12.90;;;5.90;;
23565;SDS011;22140;48.988;8.544;2023-06-26T00:38:35;11.47;;;5.70;;
23565;SDS011;22140;48.988;8.544;2023-06-26T00:43:36;12.43;;;5.80;;
23565;SDS011;22140;48.988;8.544;2023-06-26T00:48:37;12.38;;;5.72;;
23565;SDS011;22140;48.988;8.544;2023-06-26T00:53:39;10.98;;;5.35;;
23565;SDS011;22140;48.988;8.544;2023-06-26T00:58:41;11.57;;;5.33;;
23565;SDS011;22140;48.988;8.544;2023-06-26T01:03:45;12.05;;;5.20;;
23565;SDS011;22140;48.988;8.544;2023-06-26T01:08:47;13.23;;;5.30;;
23565;SDS011;22140;48.988;8.544;2023-06-26T01:13:48;12.33;;;5.43;;
23565;SDS011;22140;48.988;8.544;2023-06-26T01:18:51;12.43;;;5.78;;
23565;SDS011;22140;48.988;8.544;2023-06-26T01:23:58;11.60;;;5.57;;
23565;SDS011;22140;48.988;8.544;2023-06-26T01:29:06;13.63;;;6.63;;
23565;SDS011;22140;48.988;8.544;2023-06-26T01:34:08;12.63;;;5.13;;
23565;SDS011;22140;48.988;8.544;2023-06-26T01:39:10;13.48;;;5.80;;
23565;SDS011;22140;48.988;8.544;2023-06-26T01:44:15;11.15;;;5.07;;
23565;SDS011;22140;48.988;8.544;2023-06-26T01:49:38;11.80;;;6.00;;
23565;SDS011;22140;48.988;8.544;2023-06-26T01:54:53;12.85;;;5.18;;
23565;SDS011;22140;48.988;8.544;2023-06-26T01:59:55;12.65;;;5.97;;
23565;SDS011;22140;48.988;8.544;2023-06-26T02:04:57;12.77;;;5.60;;
23565;SDS011;22140;48.988;8.544;2023-06-26T02:09:58;12.07;;;5.70;;
23565;SDS011;22140;48.988;8.544;2023-06-26T02:14:59;11.80;;;5.70;;
23565;SDS011;22140;48.988;8.544;2023-06-26T02:20:01;21.20;;;6.00;;
23565;SDS011;22140;48.988;8.544;2023-06-26T02:25:02;13.03;;;5.53;;
23565;SDS011;22140;48.988;8.544;2023-06-26T02:30:04;11.00;;;5.35;;
23565;SDS011;22140;48.988;8.544;2023-06-26T02:35:05;10.43;;;4.85;;
23565;SDS011;22140;48.988;8.544;2023-06-26T02:40:07;11.77;;;5.43;;
23565;SDS011;22140;48.988;8.544;2023-06-26T02:45:10;11.88;;;5.13;;
23565;SDS011;22140;48.988;8.544;2023-06-26T02:50:11;13.13;;;5.78;;
23565;SDS011;22140;48.988;8.544;2023-06-26T02:55:13;11.67;;;5.13;;
23565;SDS011;22140;48.988;8.544;2023-06-26T03:00:14;11.80;;;5.65;;
23565;SDS011;22140;48.988;8.544;2023-06-26T03:05:16;13.95;;;5.43;;
23565;SDS011;22140;48.988;8.544;2023-06-26T03:10:17;12.77;;;5.33;;
23565;SDS011;22140;48.988;8.544;2023-06-26T03:15:19;11.70;;;5.43;;
23565;SDS011;22140;48.988;8.544;2023-06-26T03:20:20;11.23;;;5.45;;
23565;SDS011;22140;48.988;8.544;2023-06-26T03:25:21;14.18;;;6.15;;
23565;SDS011;22140;48.988;8.544;2023-06-26T03:30:23;12.53;;;5.80;;
23565;SDS011;22140;48.988;8.544;2023-06-26T03:35:24;13.05;;;5.78;;
23565;SDS011;22140;48.988;8.544;2023-06-26T03:40:26;12.73;;;5.80;;
23565;SDS011;22140;48.988;8.544;2023-06-26T03:45:27;13.57;;;5.57;;
23565;SDS011;22140;48.988;8.544;2023-06-26T03:50:29;12.07;;;5.68;;
23565;SDS011;22140;48.988;8.544;2023-06-26T03:55:30;12.82;;;5.85;;
23565;SDS011;22140;48.988;8.544;2023-06-26T04:00:31;12.50;;;5.90;;
23565;SDS011;22140;48.988;8.544;2023-06-26T04:05:33;13.07;;;5.65;;
23565;SDS011;22140;48.988;8.544;2023-06-26T04:10:34;12.07;;;5.80;;
23565;SDS011;22140;48.988;8.544;2023-06-26T04:15:37;15.53;;;5.83;;
23565;SDS011;22140;48.988;8.544;2023-06-26T04:20:39;12.37;;;5.27;;
23565;SDS011;22140;48.988;8.544;2023-06-26T04:25:42;12.43;;;5.90;;
23565;SDS011;22140;48.988;8.544;2023-06-26T04:30:44;13.60;;;6.07;;
23565;SDS011;22140;48.988;8.544;2023-06-26T04:35:45;13.00;;;5.93;;
23565;SDS011;22140;48.988;8.544;2023-06-26T04:40:49;14.80;;;5.80;;
23565;SDS011;22140;48.988;8.544;2023-06-26T04:45:51;13.07;;;5.40;;
23565;SDS011;22140;48.988;8.544;2023-06-26T04:50:52;13.13;;;5.57;;
23565;SDS011;22140;48.988;8.544;2023-06-26T04:55:57;14.98;;;6.07;;
23565;SDS011;22140;48.988;8.544;2023-06-26T05:00:58;12.50;;;5.85;;
23565;SDS011;22140;48.988;8.544;2023-06-26T05:06:00;15.47;;;6.17;;
23565;SDS011;22140;48.988;8.544;2023-06-26T05:11:09;12.07;;;5.95;;
23565;SDS011;22140;48.988;8.544;2023-06-26T05:16:10;17.15;;;6.60;;
23565;SDS011;22140;48.988;8.544;2023-06-26T05:21:11;11.07;;;5.30;;
23565;SDS011;22140;48.988;8.544;2023-06-26T05:26:13;15.17;;;6.27;;
23565;SDS011;22140;48.988;8.544;2023-06-26T05:31:15;12.15;;;6.05;;
23565;SDS011;22140;48.988;8.544;2023-06-26T05:36:16;11.02;;;5.55;;
23565;SDS011;22140;48.988;8.544;2023-06-26T05:41:19;14.83;;;6.33;;
23565;SDS011;22140;48.988;8.544;2023-06-26T05:46:21;18.95;;;6.57;;
23565;SDS011;22140;48.988;8.544;2023-06-26T05:51:22;11.75;;;6.13;;
23565;SDS011;22140;48.988;8.544;2023-06-26T05:56:25;12.90;;;5.80;;
23565;SDS011;22140;48.988;8.544;2023-06-26T06:01:27;16.48;;;6.75;;
23565;SDS011;22140;48.988;8.544;2023-06-26T06:06:28;37.38;;;8.48;;
23565;SDS011;22140;48.988;8.544;2023-06-26T06:11:29;19.77;;;6.10;;
23565;SDS011;22140;48.988;8.544;2023-06-26T06:16:31;12.67;;;5.80;;
23565;SDS011;22140;48.988;8.544;2023-06-26T06:21:32;10.90;;;5.70;;
23565;SDS011;22140;48.988;8.544;2023-06-26T06:26:33;16.63;;;6.55;;
23565;SDS011;22140;48.988;8.544;2023-06-26T06:31:35;15.67;;;6.80;;
23565;SDS011;22140;48.988;8.544;2023-06-26T06:36:36;11.88;;;6.63;;
23565;SDS011;22140;48.988;8.544;2023-06-26T06:41:38;13.07;;;6.50;;
23565;SDS011;22140;48.988;8.544;2023-06-26T06:46:39;13.03;;;6.70;;
23565;SDS011;22140;48.988;8.544;2023-06-26T06:51:41;11.18;;;6.97;;
23565;SDS011;22140;48.988;8.544;2023-06-26T06:56:42;12.25;;;7.00;;
23565;SDS011;22140;48.988;8.544;2023-06-26T07:01:43;24.27;;;7.63;;
23565;SDS011;22140;48.988;8.544;2023-06-26T07:06:45;14.77;;;6.77;;
23565;SDS011;22140;48.988;8.544;2023-06-26T07:11:46;11.00;;;6.47;;
23565;SDS011;22140;48.988;8.544;2023-06-26T07:16:48;15.38;;;7.18;;
23565;SDS011;22140;48.988;8.544;2023-06-26T07:21:49;11.40;;;5.97;;
23565;SDS011;22140;48.988;8.544;2023-06-26T07:26:51;10.40;;;6.32;;
23565;SDS011;22140;48.988;8.544;2023-06-26T07:31:52;14.75;;;6.65;;
23565;SDS011;22140;48.988;8.544;2023-06-26T07:36:53;13.17;;;6.37;;
23565;SDS011;22140;48.988;8.544;2023-06-26T07:41:55;30.88;;;7.40;;
23565;SDS011;22140;48.988;8.544;2023-06-26T07:46:56;10.85;;;6.72;;
23565;SDS011;22140;48.988;8.544;2023-06-26T07:51:58;12.30;;;6.83;;
23565;SDS011;22140;48.988;8.544;2023-06-26T07:57:00;14.43;;;6.70;;
23565;SDS011;22140;48.988;8.544;2023-06-26T08:02:02;13.63;;;5.93;;
23565;SDS011;22140;48.988;8.544;2023-06-26T08:07:04;14.02;;;7.05;;
23565;SDS011;22140;48.988;8.544;2023-06-26T08:12:06;11.27;;;6.43;;
23565;SDS011;22140;48.988;8.544;2023-06-26T08:17:09;12.88;;;6.53;;
23565;SDS011;22140;48.988;8.544;2023-06-26T08:22:11;14.55;;;7.53;;
23565;SDS011;22140;48.988;8.544;2023-06-26T08:27:12;13.20;;;6.23;;
23565;SDS011;22140;48.988;8.544;2023-06-26T08:32:13;13.43;;;5.88;;
23565;SDS011;22140;48.988;8.544;2023-06-26T08:37:15;11.50;;;6.50;;
23565;SDS011;22140;48.988;8.544;2023-06-26T08:42:16;21.43;;;7.90;;
23565;SDS011;22140;48.988;8.544;2023-06-26T08:47:17;48.40;;;8.87;;
23565;SDS011;22140;48.988;8.544;2023-06-26T08:52:23;18.25;;;6.68;;
23565;SDS011;22140;48.988;8.544;2023-06-26T08:57:25;14.00;;;6.65;;
23565;SDS011;22140;48.988;8.544;2023-06-26T09:02:27;13.77;;;6.73;;
23565;SDS011;22140;48.988;8.544;2023-06-26T09:07:29;11.43;;;5.93;;
23565;SDS011;22140;48.988;8.544;2023-06-26T09:12:31;11.13;;;6.32;;
23565;SDS011;22140;48.988;8.544;2023-06-26T09:17:33;10.50;;;5.57;;
23565;SDS011;22140;48.988;8.544;2023-06-26T09:22:38;11.18;;;6.07;;
23565;SDS011;22140;48.988;8.544;2023-06-26T09:27:39;17.23;;;6.65;;
23565;SDS011;22140;48.988;8.544;2023-06-26T09:32:41;9.67;;;6.17;;
23565;SDS011;22140;48.988;8.544;2023-06-26T09:37:42;15.27;;;6.17;;
23565;SDS011;22140;48.988;8.544;2023-06-26T09:42:44;15.32;;;6.03;;
23565;SDS011;22140;48.988;8.544;2023-06-26T09:47:46;13.68;;;5.75;;
23565;SDS011;22140;48.988;8.544;2023-06-26T09:52:47;14.93;;;6.17;;
23565;SDS011;22140;48.988;8.544;2023-06-26T09:57:51;29.50;;;6.72;;
23565;SDS011;22140;48.988;8.544;2023-06-26T10:02:52;16.02;;;6.57;;
23565;SDS011;22140;48.988;8.544;2023-06-26T10:07:54;12.20;;;6.57;;
23565;SDS011;22140;48.988;8.544;2023-06-26T10:12:59;14.93;;;6.43;;
23565;SDS011;22140;48.988;8.544;2023-06-26T10:18:02;10.02;;;6.00;;
23565;SDS011;22140;48.988;8.544;2023-06-26T10:23:03;11.43;;;6.20;;
23565;SDS011;22140;48.988;8.544;2023-06-26T10:28:06;10.30;;;5.73;;
23565;SDS011;22140;48.988;8.544;2023-06-26T10:33:08;10.13;;;5.60;;
23565;SDS011;22140;48.988;8.544;2023-06-26T10:38:10;10.82;;;5.82;;
23565;SDS011;22140;48.988;8.544;2023-06-26T10:43:12;11.70;;;5.63;;
23565;SDS011;22140;48.988;8.544;2023-06-26T10:48:14;16.52;;;6.30;;
23565;SDS011;22140;48.988;8.544;2023-06-26T10:53:21;9.25;;;5.35;;
23565;SDS011;22140;48.988;8.544;2023-06-26T10:58:31;14.97;;;5.97;;
23565;SDS011;22140;48.988;8.544;2023-06-26T11:03:32;17.63;;;6.00;;
23565;SDS011;22140;48.988;8.544;2023-06-26T11:13:50;13.03;;;5.63;;
23565;SDS011;22140;48.988;8.544;2023-06-26T11:18:52;9.87;;;5.73;;
23565;SDS011;22140;48.988;8.544;2023-06-26T11:23:59;9.27;;;5.47;;
23565;SDS011;22140;48.988;8.544;2023-06-26T11:29:03;9.75;;;5.28;;
23565;SDS011;22140;48.988;8.544;2023-06-26T11:34:05;10.00;;;5.77;;
23565;SDS011;22140;48.988;8.544;2023-06-26T11:39:07;10.93;;;5.45;;
23565;SDS011;22140;48.988;8.544;2023-06-26T11:44:09;11.52;;;5.25;;
23565;SDS011;22140;48.988;8.544;2023-06-26T11:49:15;10.27;;;5.17;;
23565;SDS011;22140;48.988;8.544;2023-06-26T11:54:24;10.00;;;5.18;;
23565;SDS011;22140;48.988;8.544;2023-06-26T11:59:38;8.00;;;4.40;;
23565;SDS011;22140;48.988;8.544;2023-06-26T12:04:41;9.50;;;4.83;;
23565;SDS011;22140;48.988;8.544;2023-06-26T12:09:43;11.87;;;4.67;;
23565;SDS011;22140;48.988;8.544;2023-06-26T12:14:45;9.63;;;4.82;;
23565;SDS011;22140;48.988;8.544;2023-06-26T12:19:46;12.85;;;4.72;;
23565;SDS011;22140;48.988;8.544;2023-06-26T12:24:49;16.03;;;4.97;;
23565;SDS011;22140;48.988;8.544;2023-06-26T12:29:52;11.32;;;4.13;;
23565;SDS011;22140;48.988;8.544;2023-06-26T12:34:55;8.48;;;4.15;;
23565;SDS011;22140;48.988;8.544;2023-06-26T12:39:57;29.50;;;4.83;;
23565;SDS011;22140;48.988;8.544;2023-06-26T12:44:59;14.48;;;4.00;;
23565;SDS011;22140;48.988;8.544;2023-06-26T12:50:04;9.30;;;3.70;;
23565;SDS011;22140;48.988;8.544;2023-06-26T12:55:05;9.73;;;3.60;;
23565;SDS011;22140;48.988;8.544;2023-06-26T13:00:07;8.33;;;3.23;;
23565;SDS011;22140;48.988;8.544;2023-06-26T13:05:11;14.02;;;3.45;;
23565;SDS011;22140;48.988;8.544;2023-06-26T13:10:12;17.02;;;4.38;;
23565;SDS011;22140;48.988;8.544;2023-06-26T13:15:14;9.40;;;3.20;;
23565;SDS011;22140;48.988;8.544;2023-06-26T13:20:15;11.00;;;3.72;;
23565;SDS011;22140;48.988;8.544;2023-06-26T13:25:17;9.00;;;3.65;;
23565;SDS011;22140;48.988;8.544;2023-06-26T13:30:18;7.77;;;3.20;;
23565;SDS011;22140;48.988;8.544;2023-06-26T13:35:19;8.18;;;3.50;;
23565;SDS011;22140;48.988;8.544;2023-06-26T13:40:21;10.80;;;3.50;;
23565;SDS011;22140;48.988;8.544;2023-06-26T13:45:22;8.63;;;3.63;;
23565;SDS011;22140;48.988;8.544;2023-06-26T13:50:31;9.37;;;4.10;;
23565;SDS011;22140;48.988;8.544;2023-06-26T13:55:52;7.50;;;3.35;;
23565;SDS011;22140;48.988;8.544;2023-06-26T14:00:54;13.95;;;4.43;;
23565;SDS011;22140;48.988;8.544;2023-06-26T14:05:55;8.80;;;4.13;;
23565;SDS011;22140;48.988;8.544;2023-06-26T14:10:56;8.25;;;4.20;;
23565;SDS011;22140;48.988;8.544;2023-06-26T14:15:58;10.52;;;4.97;;
23565;SDS011;22140;48.988;8.544;2023-06-26T14:20:59;13.60;;;4.90;;
23565;SDS011;22140;48.988;8.544;2023-06-26T14:26:00;9.90;;;5.00;;
23565;SDS011;22140;48.988;8.544;2023-06-26T14:31:02;11.55;;;4.63;;
23565;SDS011;22140;48.988;8.544;2023-06-26T14:36:03;13.97;;;5.57;;
23565;SDS011;22140;48.988;8.544;2023-06-26T14:41:05;13.83;;;5.00;;
23565;SDS011;22140;48.988;8.544;2023-06-26T14:46:07;23.88;;;6.22;;
23565;SDS011;22140;48.988;8.544;2023-06-26T14:51:09;12.07;;;5.40;;
23565;SDS011;22140;48.988;8.544;2023-06-26T14:56:11;12.37;;;5.23;;
23565;SDS011;22140;48.988;8.544;2023-06-26T15:01:12;12.10;;;5.00;;
23565;SDS011;22140;48.988;8.544;2023-06-26T15:06:16;10.85;;;4.50;;
23565;SDS011;22140;48.988;8.544;2023-06-26T15:11:18;10.93;;;4.30;;
23565;SDS011;22140;48.988;8.544;2023-06-26T15:16:19;10.20;;;3.92;;
23565;SDS011;22140;48.988;8.544;2023-06-26T15:21:22;8.35;;;3.95;;
23565;SDS011;22140;48.988;8.544;2023-06-26T15:26:24;7.27;;;2.80;;
23565;SDS011;22140;48.988;8.544;2023-06-26T15:31:27;12.20;;;3.27;;
23565;SDS011;22140;48.988;8.544;2023-06-26T15:36:29;8.10;;;2.50;;
23565;SDS011;22140;48.988;8.544;2023-06-26T15:41:30;10.40;;;2.80;;
23565;SDS011;22140;48.988;8.544;2023-06-26T15:46:31;7.37;;;2.40;;
23565;SDS011;22140;48.988;8.544;2023-06-26T15:51:33;10.05;;;2.38;;
23565;SDS011;22140;48.988;8.544;2023-06-26T15:56:36;8.30;;;2.13;;
23565;SDS011;22140;48.988;8.544;2023-06-26T16:01:37;6.13;;;2.00;;
23565;SDS011;22140;48.988;8.544;2023-06-26T16:06:41;7.95;;;1.80;;
23565;SDS011;22140;48.988;8.544;2023-06-26T16:11:43;6.22;;;1.85;;
23565;SDS011;22140;48.988;8.544;2023-06-26T16:16:44;8.17;;;2.20;;
23565;SDS011;22140;48.988;8.544;2023-06-26T16:21:46;7.83;;;2.37;;
23565;SDS011;22140;48.988;8.544;2023-06-26T16:26:47;8.40;;;2.33;;
23565;SDS011;22140;48.988;8.544;2023-06-26T16:31:48;8.35;;;2.45;;
23565;SDS011;22140;48.988;8.544;2023-06-26T16:36:50;8.87;;;2.20;;
23565;SDS011;22140;48.988;8.544;2023-06-26T16:41:52;7.78;;;2.22;;
23565;SDS011;22140;48.988;8.544;2023-06-26T16:46:57;7.10;;;1.90;;
23565;SDS011;22140;48.988;8.544;2023-06-26T16:51:58;7.40;;;2.33;;
23565;SDS011;22140;48.988;8.544;2023-06-26T16:57:01;9.25;;;2.05;;
23565;SDS011;22140;48.988;8.544;2023-06-26T17:02:03;6.55;;;1.95;;
23565;SDS011;22140;48.988;8.544;2023-06-26T17:07:06;6.90;;;1.73;;
23565;SDS011;22140;48.988;8.544;2023-06-26T17:12:07;8.73;;;1.80;;
23565;SDS011;22140;48.988;8.544;2023-06-26T17:17:09;8.35;;;1.90;;
23565;SDS011;22140;48.988;8.544;2023-06-26T17:22:10;7.93;;;1.77;;
23565;SDS011;22140;48.988;8.544;2023-06-26T17:27:12;6.77;;;1.90;;
23565;SDS011;22140;48.988;8.544;2023-06-26T17:32:15;5.47;;;1.85;;
23565;SDS011;22140;48.988;8.544;2023-06-26T17:37:22;7.47;;;1.70;;
23565;SDS011;22140;48.988;8.544;2023-06-26T17:42:24;7.07;;;1.90;;
23565;SDS011;22140;48.988;8.544;2023-06-26T17:47:25;6.88;;;1.63;;
23565;SDS011;22140;48.988;8.544;2023-06-26T17:52:28;8.32;;;1.92;;
23565;SDS011;22140;48.988;8.544;2023-06-26T17:57:30;6.20;;;1.53;;
23565;SDS011;22140;48.988;8.544;2023-06-26T18:02:31;5.83;;;1.50;;
23565;SDS011;22140;48.988;8.544;2023-06-26T18:07:33;9.40;;;1.95;;
23565;SDS011;22140;48.988;8.544;2023-06-26T18:12:34;10.43;;;1.77;;
23565;SDS011;22140;48.988;8.544;2023-06-26T18:17:36;5.93;;;1.60;;
23565;SDS011;22140;48.988;8.544;2023-06-26T18:22:37;7.22;;;1.67;;
23565;SDS011;22140;48.988;8.544;2023-06-26T18:27:39;7.40;;;1.70;;
23565;SDS011;22140;48.988;8.544;2023-06-26T18:32:41;7.03;;;1.80;;
23565;SDS011;22140;48.988;8.544;2023-06-26T18:37:43;9.68;;;1.90;;
23565;SDS011;22140;48.988;8.544;2023-06-26T18:42:44;5.47;;;1.55;;
23565;SDS011;22140;48.988;8.544;2023-06-26T18:47:47;6.17;;;2.00;;
23565;SDS011;22140;48.988;8.544;2023-06-26T18:52:51;6.40;;;1.70;;
23565;SDS011;22140;48.988;8.544;2023-06-26T18:57:52;6.20;;;1.40;;
23565;SDS011;22140;48.988;8.544;2023-06-26T19:02:54;5.03;;;1.40;;
23565;SDS011;22140;48.988;8.544;2023-06-26T19:07:55;6.60;;;1.80;;
23565;SDS011;22140;48.988;8.544;2023-06-26T19:12:56;5.93;;;1.60;;
23565;SDS011;22140;48.988;8.544;2023-06-26T19:17:58;6.25;;;1.38;;
23565;SDS011;22140;48.988;8.544;2023-06-26T19:22:59;5.40;;;1.40;;
23565;SDS011;22140;48.988;8.544;2023-06-26T19:28:01;6.75;;;1.50;;
23565;SDS011;22140;48.988;8.544;2023-06-26T19:33:02;4.75;;;1.30;;
23565;SDS011;22140;48.988;8.544;2023-06-26T19:38:04;7.77;;;2.00;;
23565;SDS011;22140;48.988;8.544;2023-06-26T19:43:07;6.10;;;1.70;;
23565;SDS011;22140;48.988;8.544;2023-06-26T19:48:09;6.32;;;1.80;;
23565;SDS011;22140;48.988;8.544;2023-06-26T19:53:10;8.02;;;1.83;;
23565;SDS011;22140;48.988;8.544;2023-06-26T19:58:11;6.57;;;1.57;;
23565;SDS011;22140;48.988;8.544;2023-06-26T20:03:13;5.70;;;1.50;;
23565;SDS011;22140;48.988;8.544;2023-06-26T20:08:14;5.82;;;1.50;;
23565;SDS011;22140;48.988;8.544;2023-06-26T20:13:16;6.73;;;1.83;;
23565;SDS011;22140;48.988;8.544;2023-06-26T20:18:17;6.07;;;1.60;;
23565;SDS011;22140;48.988;8.544;2023-06-26T20:23:19;9.50;;;1.60;;
23565;SDS011;22140;48.988;8.544;2023-06-26T20:28:21;6.33;;;1.43;;
23565;SDS011;22140;48.988;8.544;2023-06-26T20:33:22;8.20;;;1.50;;
23565;SDS011;22140;48.988;8.544;2023-06-26T20:38:24;8.25;;;1.67;;
23565;SDS011;22140;48.988;8.544;2023-06-26T20:43:25;9.90;;;1.55;;
23565;SDS011;22140;48.988;8.544;2023-06-26T20:48:26;7.40;;;1.67;;
23565;SDS011;22140;48.988;8.544;2023-06-26T20:53:28;6.03;;;1.50;;
23565;SDS011;22140;48.988;8.544;2023-06-26T20:58:30;8.68;;;1.88;;
23565;SDS011;22140;48.988;8.544;2023-06-26T21:03:31;9.37;;;1.67;;
23565;SDS011;22140;48.988;8.544;2023-06-26T21:08:32;6.43;;;1.58;;
23565;SDS011;22140;48.988;8.544;2023-06-26T21:13:34;8.15;;;1.80;;
23565;SDS011;22140;48.988;8.544;2023-06-26T21:18:35;7.90;;;1.70;;
23565;SDS011;22140;48.988;8.544;2023-06-26T21:23:37;9.70;;;1.77;;
23565;SDS011;22140;48.988;8.544;2023-06-26T21:28:38;5.80;;;1.50;;
23565;SDS011;22140;48.988;8.544;2023-06-26T21:33:39;8.88;;;1.90;;
23565;SDS011;22140;48.988;8.544;2023-06-26T21:38:41;9.67;;;2.10;;
23565;SDS011;22140;48.988;8.544;2023-06-26T21:43:43;6.57;;;1.50;;
23565;SDS011;22140;48.988;8.544;2023-06-26T21:48:44;11.30;;;2.00;;
23565;SDS011;22140;48.988;8.544;2023-06-26T21:53:45;6.57;;;1.80;;
23565;SDS011;22140;48.988;8.544;2023-06-26T21:58:47;6.88;;;1.88;;
23565;SDS011;22140;48.988;8.544;2023-06-26T22:03:48;8.57;;;1.90;;
23565;SDS011;22140;48.988;8.544;2023-06-26T22:08:50;8.57;;;2.07;;
23565;SDS011;22140;48.988;8.544;2023-06-26T22:13:51;7.20;;;2.13;;
23565;SDS011;22140;48.988;8.544;2023-06-26T22:18:53;5.63;;;1.70;;
23565;SDS011;22140;48.988;8.544;2023-06-26T22:23:55;6.70;;;1.90;;
23565;SDS011;22140;48.988;8.544;2023-06-26T22:28:56;7.80;;;1.80;;
23565;SDS011;22140;48.988;8.544;2023-06-26T22:33:57;7.00;;;2.00;;
23565;SDS011;22140;48.988;8.544;2023-06-26T22:38:59;5.57;;;1.70;;
23565;SDS011;22140;48.988;8.544;2023-06-26T22:49:57;8.10;;;1.75;;
23565;SDS011;22140;48.988;8.544;2023-06-26T22:54:59;8.60;;;2.10;;
23565;SDS011;22140;48.988;8.544;2023-06-26T23:00:01;7.80;;;1.77;;
23565;SDS011;22140;48.988;8.544;2023-06-26T23:05:09;6.47;;;1.60;;
23565;SDS011;22140;48.988;8.544;2023-06-26T23:10:11;8.02;;;1.77;;
23565;SDS011;22140;48.988;8.544;2023-06-26T23:15:12;9.33;;;1.93;;
23565;SDS011;22140;48.988;8.544;2023-06-26T23:20:14;7.35;;;1.75;;
23565;SDS011;22140;48.988;8.544;2023-06-26T23:25:15;7.40;;;2.00;;
23565;SDS011;22140;48.988;8.544;2023-06-26T23:30:16;7.83;;;1.90;;
23565;SDS011;22140;48.988;8.544;2023-06-26T23:35:20;14.77;;;2.40;;
23565;SDS011;22140;48.988;8.544;2023-06-26T23:40:25;8.82;;;1.95;;
23565;SDS011;22140;48.988;8.544;2023-06-26T23:45:27;10.00;;;1.92;;
23565;SDS011;22140;48.988;8.544;2023-06-26T23:50:28;6.40;;;1.83;;
23565;SDS011;22140;48.988;8.544;2023-06-26T23:55:31;6.97;;;2.17;;
